sensor_id;sensor_type;location;lat;lon;timestamp;P1;durP1;ratioP1;P2;durP2;ratioP2
39554;SDS011;25231;48.746;9.234;2023-04-01T00:00:16;3.33;;;3.13;;
39554;SDS011;25231;48.746;9.234;2023-04-01T00:02:41;7.27;;;3.13;;
39554;SDS011;25231;48.746;9.234;2023-04-01T00:05:07;3.17;;;3.00;;
39554;SDS011;25231;48.746;9.234;2023-04-01T00:07:35;3.53;;;2.63;;
39554;SDS011;25231;48.746;9.234;2023-04-01T00:10:01;3.80;;;3.03;;
39554;SDS011;25231;48.746;9.234;2023-04-01T00:12:27;2.93;;;2.70;;
39554;SDS011;25231;48.746;9.234;2023-04-01T00:14:52;3.03;;;2.83;;
39554;SDS011;25231;48.746;9.234;2023-04-01T00:17:18;3.00;;;2.80;;
39554;SDS011;25231;48.746;9.234;2023-04-01T00:19:43;4.10;;;3.80;;
39554;SDS011;25231;48.746;9.234;2023-04-01T00:22:08;6.60;;;3.30;;
39554;SDS011;25231;48.746;9.234;2023-04-01T00:24:36;3.73;;;3.43;;
39554;SDS011;25231;48.746;9.234;2023-04-01T00:27:02;4.10;;;3.07;;
39554;SDS011;25231;48.746;9.234;2023-04-01T00:29:28;3.33;;;3.13;;
39554;SDS011;25231;48.746;9.234;2023-04-01T00:31:55;3.30;;;3.10;;
39554;SDS011;25231;48.746;9.234;2023-04-01T00:34:21;3.93;;;3.07;;
39554;SDS011;25231;48.746;9.234;2023-04-01T00:36:47;3.87;;;3.00;;
39554;SDS011;25231;48.746;9.234;2023-04-01T00:39:12;3.90;;;2.90;;
39554;SDS011;25231;48.746;9.234;2023-04-01T00:41:38;3.20;;;2.90;;
39554;SDS011;25231;48.746;9.234;2023-04-01T00:44:19;6.87;;;2.83;;
39554;SDS011;25231;48.746;9.234;2023-04-01T00:46:48;2.87;;;2.67;;
39554;SDS011;25231;48.746;9.234;2023-04-01T00:49:14;3.93;;;2.57;;
39554;SDS011;25231;48.746;9.234;2023-04-01T00:51:42;5.73;;;3.30;;
39554;SDS011;25231;48.746;9.234;2023-04-01T00:54:11;2.73;;;2.53;;
39554;SDS011;25231;48.746;9.234;2023-04-01T00:56:48;3.33;;;2.50;;
39554;SDS011;25231;48.746;9.234;2023-04-01T00:59:31;3.03;;;2.73;;
39554;SDS011;25231;48.746;9.234;2023-04-01T01:02:00;4.50;;;3.00;;
39554;SDS011;25231;48.746;9.234;2023-04-01T01:04:28;2.83;;;2.63;;
39554;SDS011;25231;48.746;9.234;2023-04-01T01:09:47;3.43;;;3.00;;
39554;SDS011;25231;48.746;9.234;2023-04-01T01:34:22;4.50;;;2.97;;
39554;SDS011;25231;48.746;9.234;2023-04-01T01:37:01;2.87;;;2.67;;
39554;SDS011;25231;48.746;9.234;2023-04-01T01:39:31;2.77;;;2.67;;
39554;SDS011;25231;48.746;9.234;2023-04-01T01:42:01;3.83;;;2.40;;
39554;SDS011;25231;48.746;9.234;2023-04-01T01:44:30;3.53;;;2.60;;
39554;SDS011;25231;48.746;9.234;2023-04-01T01:46:58;2.83;;;2.50;;
39554;SDS011;25231;48.746;9.234;2023-04-01T01:49:25;2.67;;;2.47;;
39554;SDS011;25231;48.746;9.234;2023-04-01T01:51:55;2.50;;;2.40;;
39554;SDS011;25231;48.746;9.234;2023-04-01T01:54:20;2.90;;;2.70;;
39554;SDS011;25231;48.746;9.234;2023-04-01T01:56:46;2.53;;;2.33;;
39554;SDS011;25231;48.746;9.234;2023-04-01T01:59:14;2.97;;;2.53;;
39554;SDS011;25231;48.746;9.234;2023-04-01T02:01:43;3.03;;;2.73;;
39554;SDS011;25231;48.746;9.234;2023-04-01T02:04:12;2.70;;;2.47;;
39554;SDS011;25231;48.746;9.234;2023-04-01T02:06:40;4.57;;;2.83;;
39554;SDS011;25231;48.746;9.234;2023-04-01T02:09:11;2.63;;;2.43;;
39554;SDS011;25231;48.746;9.234;2023-04-01T02:11:39;3.83;;;2.43;;
39554;SDS011;25231;48.746;9.234;2023-04-01T02:14:17;2.87;;;2.60;;
39554;SDS011;25231;48.746;9.234;2023-04-01T02:17:00;2.90;;;2.70;;
39554;SDS011;25231;48.746;9.234;2023-04-01T02:19:31;2.90;;;2.60;;
39554;SDS011;25231;48.746;9.234;2023-04-01T02:22:01;2.97;;;2.70;;
39554;SDS011;25231;48.746;9.234;2023-04-01T02:24:30;3.17;;;2.97;;
39554;SDS011;25231;48.746;9.234;2023-04-01T02:26:57;3.53;;;2.47;;
39554;SDS011;25231;48.746;9.234;2023-04-01T02:29:23;3.53;;;2.83;;
39554;SDS011;25231;48.746;9.234;2023-04-01T02:31:53;2.60;;;2.40;;
39554;SDS011;25231;48.746;9.234;2023-04-01T02:34:20;2.77;;;2.40;;
39554;SDS011;25231;48.746;9.234;2023-04-01T02:36:47;2.43;;;2.33;;
39554;SDS011;25231;48.746;9.234;2023-04-01T02:39:14;3.10;;;2.90;;
39554;SDS011;25231;48.746;9.234;2023-04-01T02:41:41;3.03;;;2.30;;
39554;SDS011;25231;48.746;9.234;2023-04-01T02:44:08;2.27;;;2.27;;
39554;SDS011;25231;48.746;9.234;2023-04-01T02:46:35;3.00;;;2.40;;
39554;SDS011;25231;48.746;9.234;2023-04-01T02:49:01;2.57;;;2.40;;
39554;SDS011;25231;48.746;9.234;2023-04-01T02:51:27;3.00;;;2.60;;
39554;SDS011;25231;48.746;9.234;2023-04-01T02:53:52;3.43;;;2.70;;
39554;SDS011;25231;48.746;9.234;2023-04-01T02:56:17;2.50;;;2.40;;
39554;SDS011;25231;48.746;9.234;2023-04-01T02:58:44;2.57;;;2.33;;
39554;SDS011;25231;48.746;9.234;2023-04-01T03:01:10;2.50;;;2.27;;
39554;SDS011;25231;48.746;9.234;2023-04-01T03:03:35;2.47;;;2.20;;
39554;SDS011;25231;48.746;9.234;2023-04-01T03:06:11;2.37;;;2.30;;
39554;SDS011;25231;48.746;9.234;2023-04-01T03:08:38;2.70;;;2.60;;
39554;SDS011;25231;48.746;9.234;2023-04-01T03:11:04;3.07;;;2.87;;
39554;SDS011;25231;48.746;9.234;2023-04-01T03:13:30;3.67;;;3.43;;
39554;SDS011;25231;48.746;9.234;2023-04-01T03:15:56;2.90;;;2.70;;
39554;SDS011;25231;48.746;9.234;2023-04-01T03:18:22;2.77;;;2.67;;
39554;SDS011;25231;48.746;9.234;2023-04-01T03:20:47;3.40;;;3.10;;
39554;SDS011;25231;48.746;9.234;2023-04-01T03:23:12;3.07;;;2.97;;
39554;SDS011;25231;48.746;9.234;2023-04-01T03:25:38;2.67;;;2.57;;
39554;SDS011;25231;48.746;9.234;2023-04-01T03:28:03;3.10;;;2.90;;
39554;SDS011;25231;48.746;9.234;2023-04-01T03:30:29;3.13;;;2.83;;
39554;SDS011;25231;48.746;9.234;2023-04-01T03:32:56;2.07;;;1.97;;
39554;SDS011;25231;48.746;9.234;2023-04-01T03:35:25;2.97;;;2.77;;
39554;SDS011;25231;48.746;9.234;2023-04-01T03:37:51;2.60;;;2.50;;
39554;SDS011;25231;48.746;9.234;2023-04-01T03:40:17;3.07;;;2.40;;
39554;SDS011;25231;48.746;9.234;2023-04-01T03:42:42;2.53;;;2.43;;
39554;SDS011;25231;48.746;9.234;2023-04-01T03:45:08;3.33;;;3.23;;
39554;SDS011;25231;48.746;9.234;2023-04-01T03:47:34;2.30;;;2.10;;
39554;SDS011;25231;48.746;9.234;2023-04-01T03:49:59;2.60;;;2.50;;
39554;SDS011;25231;48.746;9.234;2023-04-01T03:52:25;2.80;;;2.70;;
39554;SDS011;25231;48.746;9.234;2023-04-01T03:54:50;2.40;;;2.40;;
39554;SDS011;25231;48.746;9.234;2023-04-01T03:57:15;2.80;;;2.70;;
39554;SDS011;25231;48.746;9.234;2023-04-01T03:59:41;2.80;;;2.70;;
39554;SDS011;25231;48.746;9.234;2023-04-01T04:02:06;2.47;;;2.37;;
39554;SDS011;25231;48.746;9.234;2023-04-01T04:04:31;2.90;;;2.67;;
39554;SDS011;25231;48.746;9.234;2023-04-01T04:06:57;2.07;;;2.07;;
39554;SDS011;25231;48.746;9.234;2023-04-01T04:09:23;2.50;;;2.30;;
39554;SDS011;25231;48.746;9.234;2023-04-01T04:11:48;2.50;;;2.40;;
39554;SDS011;25231;48.746;9.234;2023-04-01T04:14:14;3.10;;;2.87;;
39554;SDS011;25231;48.746;9.234;2023-04-01T04:16:40;2.73;;;2.63;;
39554;SDS011;25231;48.746;9.234;2023-04-01T04:19:05;2.67;;;2.53;;
39554;SDS011;25231;48.746;9.234;2023-04-01T04:21:31;2.70;;;2.63;;
39554;SDS011;25231;48.746;9.234;2023-04-01T04:23:58;3.10;;;2.90;;
39554;SDS011;25231;48.746;9.234;2023-04-01T04:26:24;3.00;;;2.90;;
39554;SDS011;25231;48.746;9.234;2023-04-01T04:28:50;3.00;;;2.90;;
39554;SDS011;25231;48.746;9.234;2023-04-01T04:31:20;2.93;;;2.60;;
39554;SDS011;25231;48.746;9.234;2023-04-01T04:33:47;2.97;;;2.83;;
39554;SDS011;25231;48.746;9.234;2023-04-01T04:36:13;3.77;;;3.50;;
39554;SDS011;25231;48.746;9.234;2023-04-01T04:38:38;3.37;;;3.13;;
39554;SDS011;25231;48.746;9.234;2023-04-01T04:41:08;3.53;;;3.17;;
39554;SDS011;25231;48.746;9.234;2023-04-01T04:43:37;3.30;;;3.20;;
39554;SDS011;25231;48.746;9.234;2023-04-01T04:46:06;2.33;;;2.23;;
39554;SDS011;25231;48.746;9.234;2023-04-01T04:48:33;2.90;;;2.80;;
39554;SDS011;25231;48.746;9.234;2023-04-01T04:50:58;2.70;;;2.60;;
39554;SDS011;25231;48.746;9.234;2023-04-01T04:53:23;3.23;;;2.97;;
39554;SDS011;25231;48.746;9.234;2023-04-01T04:55:50;2.57;;;2.47;;
39554;SDS011;25231;48.746;9.234;2023-04-01T04:58:15;2.77;;;2.67;;
39554;SDS011;25231;48.746;9.234;2023-04-01T05:00:41;2.93;;;2.73;;
39554;SDS011;25231;48.746;9.234;2023-04-01T05:03:07;3.17;;;2.83;;
39554;SDS011;25231;48.746;9.234;2023-04-01T05:05:33;3.20;;;2.90;;
39554;SDS011;25231;48.746;9.234;2023-04-01T05:07:58;2.87;;;2.60;;
39554;SDS011;25231;48.746;9.234;2023-04-01T05:10:24;2.53;;;2.43;;
39554;SDS011;25231;48.746;9.234;2023-04-01T05:12:49;2.90;;;2.70;;
39554;SDS011;25231;48.746;9.234;2023-04-01T05:15:15;3.07;;;2.80;;
39554;SDS011;25231;48.746;9.234;2023-04-01T05:17:40;2.70;;;2.60;;
39554;SDS011;25231;48.746;9.234;2023-04-01T05:20:06;2.70;;;2.50;;
39554;SDS011;25231;48.746;9.234;2023-04-01T05:22:32;2.77;;;2.57;;
39554;SDS011;25231;48.746;9.234;2023-04-01T05:24:57;2.87;;;2.77;;
39554;SDS011;25231;48.746;9.234;2023-04-01T05:27:22;2.80;;;2.60;;
39554;SDS011;25231;48.746;9.234;2023-04-01T05:29:48;2.23;;;2.13;;
39554;SDS011;25231;48.746;9.234;2023-04-01T05:32:13;2.93;;;2.63;;
39554;SDS011;25231;48.746;9.234;2023-04-01T05:34:38;2.60;;;2.40;;
39554;SDS011;25231;48.746;9.234;2023-04-01T05:37:04;3.10;;;3.00;;
39554;SDS011;25231;48.746;9.234;2023-04-01T05:39:29;3.73;;;2.90;;
39554;SDS011;25231;48.746;9.234;2023-04-01T05:41:54;3.40;;;3.20;;
39554;SDS011;25231;48.746;9.234;2023-04-01T05:44:20;3.10;;;3.00;;
39554;SDS011;25231;48.746;9.234;2023-04-01T05:46:45;2.80;;;2.70;;
39554;SDS011;25231;48.746;9.234;2023-04-01T05:49:11;3.13;;;2.83;;
39554;SDS011;25231;48.746;9.234;2023-04-01T05:51:36;4.63;;;2.93;;
39554;SDS011;25231;48.746;9.234;2023-04-01T05:54:03;4.13;;;2.70;;
39554;SDS011;25231;48.746;9.234;2023-04-01T05:56:29;2.60;;;2.40;;
39554;SDS011;25231;48.746;9.234;2023-04-01T05:58:55;4.20;;;3.50;;
39554;SDS011;25231;48.746;9.234;2023-04-01T06:01:20;3.60;;;3.30;;
39554;SDS011;25231;48.746;9.234;2023-04-01T06:03:46;4.23;;;3.00;;
39554;SDS011;25231;48.746;9.234;2023-04-01T06:06:15;3.80;;;3.40;;
39554;SDS011;25231;48.746;9.234;2023-04-01T06:08:46;3.33;;;3.03;;
39554;SDS011;25231;48.746;9.234;2023-04-01T06:19:22;3.03;;;2.93;;
39554;SDS011;25231;48.746;9.234;2023-04-01T06:41:55;12.07;;;11.27;;
39554;SDS011;25231;48.746;9.234;2023-04-01T06:46:48;2.97;;;2.77;;
39554;SDS011;25231;48.746;9.234;2023-04-01T06:52:19;3.30;;;3.00;;
39554;SDS011;25231;48.746;9.234;2023-04-01T06:54:53;3.30;;;3.20;;
39554;SDS011;25231;48.746;9.234;2023-04-01T06:57:30;3.87;;;3.73;;
39554;SDS011;25231;48.746;9.234;2023-04-01T07:00:03;3.43;;;3.30;;
39554;SDS011;25231;48.746;9.234;2023-04-01T07:02:45;3.30;;;3.20;;
39554;SDS011;25231;48.746;9.234;2023-04-01T07:05:20;3.67;;;3.47;;
39554;SDS011;25231;48.746;9.234;2023-04-01T07:07:48;3.03;;;2.93;;
39554;SDS011;25231;48.746;9.234;2023-04-01T07:13:30;3.47;;;3.23;;
39554;SDS011;25231;48.746;9.234;2023-04-01T07:19:24;3.10;;;2.80;;
39554;SDS011;25231;48.746;9.234;2023-04-01T07:22:05;3.47;;;2.73;;
39554;SDS011;25231;48.746;9.234;2023-04-01T07:24:40;4.63;;;4.33;;
39554;SDS011;25231;48.746;9.234;2023-04-01T07:27:09;3.20;;;3.10;;
39554;SDS011;25231;48.746;9.234;2023-04-01T07:29:35;3.07;;;2.97;;
39554;SDS011;25231;48.746;9.234;2023-04-01T07:32:09;2.93;;;2.83;;
39554;SDS011;25231;48.746;9.234;2023-04-01T07:37:46;3.53;;;3.33;;
39554;SDS011;25231;48.746;9.234;2023-04-01T07:45:40;4.43;;;4.23;;
39554;SDS011;25231;48.746;9.234;2023-04-01T07:51:19;3.90;;;3.70;;
39554;SDS011;25231;48.746;9.234;2023-04-01T07:56:43;2.60;;;2.50;;
39554;SDS011;25231;48.746;9.234;2023-04-01T08:02:20;4.00;;;3.80;;
39554;SDS011;25231;48.746;9.234;2023-04-01T08:05:07;4.13;;;2.93;;
39554;SDS011;25231;48.746;9.234;2023-04-01T08:07:44;5.27;;;2.37;;
39554;SDS011;25231;48.746;9.234;2023-04-01T08:10:25;2.70;;;2.50;;
39554;SDS011;25231;48.746;9.234;2023-04-01T08:21:02;2.33;;;2.23;;
39554;SDS011;25231;48.746;9.234;2023-04-01T08:23:33;3.80;;;3.60;;
39554;SDS011;25231;48.746;9.234;2023-04-01T08:26:04;2.53;;;2.43;;
39554;SDS011;25231;48.746;9.234;2023-04-01T08:28:45;3.47;;;3.27;;
39554;SDS011;25231;48.746;9.234;2023-04-01T08:31:22;5.23;;;3.60;;
39554;SDS011;25231;48.746;9.234;2023-04-01T08:33:55;3.37;;;3.13;;
39554;SDS011;25231;48.746;9.234;2023-04-01T08:38:57;3.17;;;2.60;;
39554;SDS011;25231;48.746;9.234;2023-04-01T08:41:59;3.50;;;3.20;;
39554;SDS011;25231;48.746;9.234;2023-04-01T08:47:46;3.50;;;3.40;;
39554;SDS011;25231;48.746;9.234;2023-04-01T08:55:51;4.40;;;4.10;;
39554;SDS011;25231;48.746;9.234;2023-04-01T09:12:55;3.47;;;3.37;;
39554;SDS011;25231;48.746;9.234;2023-04-01T09:15:37;3.60;;;3.40;;
39554;SDS011;25231;48.746;9.234;2023-04-01T09:24:21;4.10;;;3.80;;
39554;SDS011;25231;48.746;9.234;2023-04-01T09:27:10;2.63;;;2.53;;
39554;SDS011;25231;48.746;9.234;2023-04-01T09:46:25;3.07;;;2.97;;
39554;SDS011;25231;48.746;9.234;2023-04-01T09:49:07;2.77;;;2.67;;
39554;SDS011;25231;48.746;9.234;2023-04-01T10:22:46;5.43;;;5.23;;
39554;SDS011;25231;48.746;9.234;2023-04-01T10:28:43;35.93;;;34.17;;
39554;SDS011;25231;48.746;9.234;2023-04-01T10:34:25;3.63;;;3.53;;
39554;SDS011;25231;48.746;9.234;2023-04-01T10:40:35;4.37;;;4.27;;
39554;SDS011;25231;48.746;9.234;2023-04-01T10:43:19;3.53;;;3.43;;
39554;SDS011;25231;48.746;9.234;2023-04-01T10:46:07;3.30;;;3.20;;
39554;SDS011;25231;48.746;9.234;2023-04-01T10:56:52;3.60;;;3.50;;
39554;SDS011;25231;48.746;9.234;2023-04-01T11:08:45;2.23;;;2.23;;
39554;SDS011;25231;48.746;9.234;2023-04-01T11:22:47;3.00;;;2.90;;
39554;SDS011;25231;48.746;9.234;2023-04-01T11:33:57;3.27;;;3.17;;
39554;SDS011;25231;48.746;9.234;2023-04-01T11:39:33;3.63;;;3.53;;
39554;SDS011;25231;48.746;9.234;2023-04-01T11:45:35;5.77;;;5.57;;
39554;SDS011;25231;48.746;9.234;2023-04-01T11:50:55;4.03;;;3.87;;
39554;SDS011;25231;48.746;9.234;2023-04-01T11:54:00;8.20;;;7.90;;
39554;SDS011;25231;48.746;9.234;2023-04-01T11:56:40;6.70;;;6.43;;
39554;SDS011;25231;48.746;9.234;2023-04-01T12:07:15;8.10;;;7.80;;
39554;SDS011;25231;48.746;9.234;2023-04-01T12:12:39;5.43;;;5.23;;
39554;SDS011;25231;48.746;9.234;2023-04-01T12:20:50;2.20;;;2.20;;
39554;SDS011;25231;48.746;9.234;2023-04-01T12:26:35;2.47;;;2.40;;
39554;SDS011;25231;48.746;9.234;2023-04-01T12:29:17;1.87;;;1.87;;
39554;SDS011;25231;48.746;9.234;2023-04-01T12:38:06;2.23;;;2.23;;
39554;SDS011;25231;48.746;9.234;2023-04-01T12:40:48;2.70;;;2.60;;
39554;SDS011;25231;48.746;9.234;2023-04-01T12:43:39;5.60;;;5.40;;
39554;SDS011;25231;48.746;9.234;2023-04-01T12:49:17;6.83;;;6.57;;
39554;SDS011;25231;48.746;9.234;2023-04-01T12:52:17;8.93;;;8.43;;
39554;SDS011;25231;48.746;9.234;2023-04-01T12:54:53;6.60;;;6.37;;
39554;SDS011;25231;48.746;9.234;2023-04-01T13:03:36;8.40;;;8.00;;
39554;SDS011;25231;48.746;9.234;2023-04-01T13:28:20;5.50;;;5.30;;
39554;SDS011;25231;48.746;9.234;2023-04-01T13:34:17;5.30;;;5.10;;
39554;SDS011;25231;48.746;9.234;2023-04-01T13:39:44;4.53;;;4.43;;
39554;SDS011;25231;48.746;9.234;2023-04-01T13:42:38;5.17;;;4.97;;
39554;SDS011;25231;48.746;9.234;2023-04-01T13:45:29;5.60;;;5.40;;
39554;SDS011;25231;48.746;9.234;2023-04-01T13:59:07;9.93;;;9.43;;
39554;SDS011;25231;48.746;9.234;2023-04-01T14:04:41;9.17;;;8.63;;
39554;SDS011;25231;48.746;9.234;2023-04-01T14:18:11;10.97;;;10.47;;
39554;SDS011;25231;48.746;9.234;2023-04-01T14:26:07;5.60;;;5.40;;
39554;SDS011;25231;48.746;9.234;2023-04-01T14:48:24;4.47;;;4.27;;
39554;SDS011;25231;48.746;9.234;2023-04-01T14:56:43;3.73;;;3.63;;
39554;SDS011;25231;48.746;9.234;2023-04-01T15:01:47;5.40;;;5.20;;
39554;SDS011;25231;48.746;9.234;2023-04-01T15:09:39;4.23;;;4.10;;
39554;SDS011;25231;48.746;9.234;2023-04-01T15:12:24;5.13;;;4.93;;
39554;SDS011;25231;48.746;9.234;2023-04-01T15:14:58;4.03;;;3.93;;
39554;SDS011;25231;48.746;9.234;2023-04-01T15:20:14;5.30;;;5.10;;
39554;SDS011;25231;48.746;9.234;2023-04-01T15:23:13;5.50;;;5.30;;
39554;SDS011;25231;48.746;9.234;2023-04-01T15:28:28;4.87;;;4.67;;
39554;SDS011;25231;48.746;9.234;2023-04-01T15:31:18;7.47;;;7.17;;
39554;SDS011;25231;48.746;9.234;2023-04-01T15:34:12;5.13;;;4.93;;
39554;SDS011;25231;48.746;9.234;2023-04-01T15:40:03;5.83;;;5.60;;
39554;SDS011;25231;48.746;9.234;2023-04-01T15:45:31;3.13;;;2.77;;
39554;SDS011;25231;48.746;9.234;2023-04-01T15:56:54;2.00;;;2.00;;
39554;SDS011;25231;48.746;9.234;2023-04-01T16:07:43;3.43;;;2.60;;
39554;SDS011;25231;48.746;9.234;2023-04-01T16:13:35;2.40;;;2.40;;
39554;SDS011;25231;48.746;9.234;2023-04-01T16:16:14;3.20;;;2.87;;
39554;SDS011;25231;48.746;9.234;2023-04-01T16:18:53;2.77;;;2.67;;
39554;SDS011;25231;48.746;9.234;2023-04-01T16:21:46;2.70;;;2.50;;
39554;SDS011;25231;48.746;9.234;2023-04-01T16:24:19;2.63;;;2.53;;
39554;SDS011;25231;48.746;9.234;2023-04-01T16:29:52;2.27;;;2.27;;
39554;SDS011;25231;48.746;9.234;2023-04-01T16:32:38;2.20;;;2.10;;
39554;SDS011;25231;48.746;9.234;2023-04-01T16:37:52;2.50;;;2.40;;
39554;SDS011;25231;48.746;9.234;2023-04-01T16:40:25;2.60;;;2.50;;
39554;SDS011;25231;48.746;9.234;2023-04-01T16:43:11;2.57;;;2.47;;
39554;SDS011;25231;48.746;9.234;2023-04-01T16:45:57;2.10;;;2.00;;
39554;SDS011;25231;48.746;9.234;2023-04-01T16:48:45;1.93;;;1.93;;
39554;SDS011;25231;48.746;9.234;2023-04-01T16:51:39;2.60;;;2.50;;
39554;SDS011;25231;48.746;9.234;2023-04-01T16:56:47;2.50;;;2.40;;
39554;SDS011;25231;48.746;9.234;2023-04-01T16:59:34;2.70;;;2.53;;
39554;SDS011;25231;48.746;9.234;2023-04-01T17:02:13;3.37;;;3.27;;
39554;SDS011;25231;48.746;9.234;2023-04-01T17:04:46;3.73;;;3.63;;
39554;SDS011;25231;48.746;9.234;2023-04-01T17:15:47;3.20;;;3.00;;
39554;SDS011;25231;48.746;9.234;2023-04-01T17:18:23;3.37;;;3.27;;
39554;SDS011;25231;48.746;9.234;2023-04-01T17:21:07;3.27;;;3.07;;
39554;SDS011;25231;48.746;9.234;2023-04-01T17:26:32;2.40;;;2.30;;
39554;SDS011;25231;48.746;9.234;2023-04-01T17:32:00;2.27;;;2.17;;
39554;SDS011;25231;48.746;9.234;2023-04-01T17:34:40;2.93;;;2.80;;
39554;SDS011;25231;48.746;9.234;2023-04-01T17:42:42;2.70;;;2.60;;
39554;SDS011;25231;48.746;9.234;2023-04-01T17:45:24;3.57;;;3.23;;
39554;SDS011;25231;48.746;9.234;2023-04-01T17:50:28;2.73;;;2.53;;
39554;SDS011;25231;48.746;9.234;2023-04-01T17:53:16;3.53;;;2.90;;
39554;SDS011;25231;48.746;9.234;2023-04-01T18:01:40;3.40;;;3.10;;
39554;SDS011;25231;48.746;9.234;2023-04-01T18:04:17;3.07;;;2.87;;
39554;SDS011;25231;48.746;9.234;2023-04-01T18:12:28;3.83;;;3.40;;
39554;SDS011;25231;48.746;9.234;2023-04-01T18:15:06;3.57;;;3.27;;
39554;SDS011;25231;48.746;9.234;2023-04-01T18:18:10;4.27;;;3.70;;
39554;SDS011;25231;48.746;9.234;2023-04-01T18:26:28;5.17;;;4.67;;
39554;SDS011;25231;48.746;9.234;2023-04-01T18:31:40;3.40;;;3.10;;
39554;SDS011;25231;48.746;9.234;2023-04-01T18:34:20;3.53;;;3.33;;
39554;SDS011;25231;48.746;9.234;2023-04-01T18:36:59;3.00;;;2.90;;
39554;SDS011;25231;48.746;9.234;2023-04-01T18:39:38;3.53;;;3.30;;
39554;SDS011;25231;48.746;9.234;2023-04-01T18:45:21;3.23;;;2.83;;
39554;SDS011;25231;48.746;9.234;2023-04-01T18:48:03;2.33;;;2.23;;
39554;SDS011;25231;48.746;9.234;2023-04-01T18:50:37;2.47;;;2.37;;
39554;SDS011;25231;48.746;9.234;2023-04-01T18:53:10;2.37;;;2.17;;
39554;SDS011;25231;48.746;9.234;2023-04-01T18:55:52;2.40;;;2.30;;
39554;SDS011;25231;48.746;9.234;2023-04-01T19:01:26;3.43;;;3.20;;
39554;SDS011;25231;48.746;9.234;2023-04-01T19:06:59;3.50;;;3.30;;
39554;SDS011;25231;48.746;9.234;2023-04-01T19:09:30;3.00;;;2.80;;
39554;SDS011;25231;48.746;9.234;2023-04-01T19:14:39;4.07;;;3.87;;
39554;SDS011;25231;48.746;9.234;2023-04-01T19:25:48;3.13;;;2.93;;
39554;SDS011;25231;48.746;9.234;2023-04-01T19:28:26;2.70;;;2.50;;
39554;SDS011;25231;48.746;9.234;2023-04-01T19:36:29;3.87;;;2.97;;
39554;SDS011;25231;48.746;9.234;2023-04-01T19:39:18;4.30;;;3.77;;
39554;SDS011;25231;48.746;9.234;2023-04-01T19:47:48;4.90;;;4.60;;
39554;SDS011;25231;48.746;9.234;2023-04-01T19:53:19;3.33;;;3.23;;
39554;SDS011;25231;48.746;9.234;2023-04-01T19:56:02;3.10;;;2.90;;
39554;SDS011;25231;48.746;9.234;2023-04-01T19:58:33;3.03;;;2.63;;
39554;SDS011;25231;48.746;9.234;2023-04-01T20:01:05;2.70;;;2.50;;
39554;SDS011;25231;48.746;9.234;2023-04-01T20:06:35;3.57;;;3.27;;
39554;SDS011;25231;48.746;9.234;2023-04-01T20:19:59;2.57;;;2.47;;
39554;SDS011;25231;48.746;9.234;2023-04-01T20:25:13;2.67;;;2.57;;
39554;SDS011;25231;48.746;9.234;2023-04-01T20:27:47;4.00;;;3.57;;
39554;SDS011;25231;48.746;9.234;2023-04-01T20:30:27;4.07;;;3.60;;
39554;SDS011;25231;48.746;9.234;2023-04-01T20:33:51;4.00;;;3.77;;
39554;SDS011;25231;48.746;9.234;2023-04-01T20:36:06;3.37;;;3.27;;
39554;SDS011;25231;48.746;9.234;2023-04-01T20:44:20;3.40;;;3.20;;
39554;SDS011;25231;48.746;9.234;2023-04-01T20:47:10;3.70;;;3.60;;
39554;SDS011;25231;48.746;9.234;2023-04-01T20:50:05;4.33;;;4.13;;
39554;SDS011;25231;48.746;9.234;2023-04-01T20:58:21;3.93;;;3.80;;
39554;SDS011;25231;48.746;9.234;2023-04-01T21:01:04;3.43;;;3.23;;
39554;SDS011;25231;48.746;9.234;2023-04-01T21:03:38;3.70;;;3.50;;
39554;SDS011;25231;48.746;9.234;2023-04-01T21:08:53;3.87;;;3.67;;
39554;SDS011;25231;48.746;9.234;2023-04-01T21:11:27;3.13;;;2.93;;
39554;SDS011;25231;48.746;9.234;2023-04-01T21:38:35;514.97;;;83.63;;
39554;SDS011;25231;48.746;9.234;2023-04-01T21:43:34;477.90;;;95.63;;
39554;SDS011;25231;48.746;9.234;2023-04-01T21:48:56;445.57;;;78.40;;
39554;SDS011;25231;48.746;9.234;2023-04-01T21:57:12;339.37;;;72.67;;
39554;SDS011;25231;48.746;9.234;2023-04-01T21:59:54;440.17;;;96.40;;
39554;SDS011;25231;48.746;9.234;2023-04-01T22:05:31;236.17;;;64.20;;
39554;SDS011;25231;48.746;9.234;2023-04-01T22:08:20;370.87;;;81.80;;
39554;SDS011;25231;48.746;9.234;2023-04-01T22:10:51;452.80;;;84.30;;
39554;SDS011;25231;48.746;9.234;2023-04-01T22:16:16;447.50;;;98.27;;
39554;SDS011;25231;48.746;9.234;2023-04-01T22:26:46;464.87;;;115.53;;
39554;SDS011;25231;48.746;9.234;2023-04-01T22:29:27;444.77;;;99.73;;
39554;SDS011;25231;48.746;9.234;2023-04-01T22:37:15;429.60;;;70.87;;
39554;SDS011;25231;48.746;9.234;2023-04-01T22:40:09;426.13;;;71.27;;
39554;SDS011;25231;48.746;9.234;2023-04-01T22:42:51;426.40;;;72.03;;
39554;SDS011;25231;48.746;9.234;2023-04-01T22:45:26;432.30;;;70.33;;
39554;SDS011;25231;48.746;9.234;2023-04-01T22:48:15;425.07;;;70.00;;
39554;SDS011;25231;48.746;9.234;2023-04-01T22:50:54;427.33;;;78.00;;
39554;SDS011;25231;48.746;9.234;2023-04-01T22:55:59;434.53;;;74.77;;
39554;SDS011;25231;48.746;9.234;2023-04-01T22:58:36;441.37;;;94.20;;
39554;SDS011;25231;48.746;9.234;2023-04-01T23:01:06;448.93;;;100.43;;
39554;SDS011;25231;48.746;9.234;2023-04-01T23:03:40;432.40;;;90.13;;
39554;SDS011;25231;48.746;9.234;2023-04-01T23:06:12;448.47;;;115.87;;
39554;SDS011;25231;48.746;9.234;2023-04-01T23:11:58;428.33;;;105.43;;
39554;SDS011;25231;48.746;9.234;2023-04-01T23:14:30;61.53;;;39.07;;
39554;SDS011;25231;48.746;9.234;2023-04-01T23:28:22;12.67;;;9.80;;
39554;SDS011;25231;48.746;9.234;2023-04-01T23:31:31;41.87;;;35.03;;
39554;SDS011;25231;48.746;9.234;2023-04-01T23:34:04;3.60;;;3.40;;
39554;SDS011;25231;48.746;9.234;2023-04-01T23:36:46;95.17;;;49.90;;
39554;SDS011;25231;48.746;9.234;2023-04-01T23:39:31;62.03;;;37.23;;
39554;SDS011;25231;48.746;9.234;2023-04-01T23:42:15;92.43;;;52.27;;
39554;SDS011;25231;48.746;9.234;2023-04-01T23:44:46;43.70;;;39.23;;
39554;SDS011;25231;48.746;9.234;2023-04-01T23:47:15;25.53;;;23.23;;
39554;SDS011;25231;48.746;9.234;2023-04-01T23:49:45;53.77;;;39.63;;
39554;SDS011;25231;48.746;9.234;2023-04-01T23:52:48;97.77;;;48.03;;
39554;SDS011;25231;48.746;9.234;2023-04-01T23:55:31;70.40;;;54.87;;
